Time;durP1;ratioP1;P1;durP2;ratioP2;P2;SDS_P1;SDS_P2;PMS_P1;PMS_P2;Temp;Humidity;BMP_temperature;BMP_pressure;BME280_temperature;BME280_humidity;BME280_pressure;Samples;Min_cycle;Max_cycle;Signal;HPM_P1;HPM_P2
2021/11/05 00:00:33;;;;;;;0.80;0.50;;;;;;;7.21;86.09;99367.04;1692104;84;21742;-77
2021/11/05 00:02:59;;;;;;;1.00;0.53;;;;;;;7.18;86.10;99374.82;1692127;84;21056;-76
2021/11/05 00:05:27;;;;;;;0.40;0.40;;;;;;;7.16;86.13;99375.30;1690534;84;28861;-76
2021/11/05 00:07:53;;;;;;;1.40;0.65;;;;;;;7.14;86.15;99375.77;1664396;85;21061;-76
2021/11/05 00:10:20;;;;;;;0.60;0.60;;;;;;;7.13;86.18;99371.50;1689911;84;22483;-76
2021/11/05 00:12:48;;;;;;;0.50;0.50;;;;;;;7.13;86.17;99383.07;1691265;84;21523;-76
2021/11/05 00:15:15;;;;;;;1.10;0.78;;;;;;;7.13;86.18;99394.64;1693037;84;21028;-76
2021/11/05 00:17:42;;;;;;;0.62;0.62;;;;;;;7.12;86.16;99412.23;1692342;84;21480;-76
2021/11/05 00:20:09;;;;;;;3.37;0.57;;;;;;;7.13;86.17;99411.34;1694323;84;20961;-76
2021/11/05 00:22:35;;;;;;;1.32;0.50;;;;;;;7.14;86.18;99415.61;1681034;84;21647;-76
2021/11/05 00:25:06;;;;;;;2.40;0.62;;;;;;;7.16;86.16;99424.14;1674223;85;21021;-76
2021/11/05 00:27:35;;;;;;;1.07;0.60;;;;;;;7.17;86.15;99433.54;1674467;85;21528;-76
2021/11/05 00:30:04;;;;;;;1.15;0.60;;;;;;;7.17;86.15;99434.83;1662680;85;20981;-76
2021/11/05 00:32:30;;;;;;;0.60;0.33;;;;;;;7.19;86.13;99447.65;1674039;85;22148;-76
2021/11/05 00:34:56;;;;;;;1.03;0.30;;;;;;;7.18;86.12;99453.67;1674146;85;20920;-76
2021/11/05 00:37:23;;;;;;;0.40;0.40;;;;;;;7.18;86.11;99460.94;1674354;85;22247;-76
2021/11/05 00:39:49;;;;;;;1.35;0.65;;;;;;;7.18;86.12;99454.95;1673795;85;21594;-76
2021/11/05 00:42:15;;;;;;;0.37;0.30;;;;;;;7.19;86.12;99474.20;1674624;85;21501;-76
2021/11/05 00:44:41;;;;;;;0.42;0.40;;;;;;;7.18;86.11;99476.36;1674523;85;21485;-76
2021/11/05 00:47:08;;;;;;;0.40;0.40;;;;;;;7.20;86.08;99481.48;1674396;85;21557;-76
2021/11/05 00:49:35;;;;;;;0.90;0.40;;;;;;;7.19;86.09;99474.20;1660202;85;21027;-76
2021/11/05 00:52:01;;;;;;;2.65;0.30;;;;;;;7.19;86.07;99496.05;1658862;85;21467;-76
2021/11/05 00:54:27;;;;;;;3.13;0.40;;;;;;;7.19;86.05;99494.77;1672227;85;21041;-76
2021/11/05 00:56:53;;;;;;;0.57;0.50;;;;;;;7.20;86.04;99509.75;1633378;86;20998;-76
2021/11/05 00:59:19;;;;;;;0.30;0.30;;;;;;;7.19;86.02;99513.20;1670124;85;21497;-76
2021/11/05 01:01:48;;;;;;;0.20;0.20;;;;;;;7.18;86.04;99515.36;1674175;85;22342;-77
2021/11/05 01:04:14;;;;;;;0.40;0.40;;;;;;;7.18;86.02;99534.65;1661511;85;21078;-76
2021/11/05 01:06:40;;;;;;;2.27;0.30;;;;;;;7.17;86.02;99539.38;1661380;85;21569;-76
2021/11/05 01:09:07;;;;;;;0.55;0.37;;;;;;;7.16;86.04;99544.11;1673480;85;21517;-76
2021/11/05 01:11:33;;;;;;;0.50;0.50;;;;;;;7.16;86.02;99549.25;1674138;85;21057;-76
2021/11/05 01:14:00;;;;;;;0.30;0.30;;;;;;;7.14;86.02;99558.28;1664896;85;20922;-76
2021/11/05 01:16:26;;;;;;;0.40;0.35;;;;;;;7.13;86.02;99563.45;1667490;85;20942;-76
2021/11/05 01:18:52;;;;;;;;;;;;;;;7.11;86.03;99575.48;1676803;85;21445;-76
2021/11/05 01:21:19;;;;;;;0.53;0.20;;;;;;;7.10;86.04;99586.20;1674514;84;20664;-76
2021/11/05 01:23:46;;;;;;;0.30;0.30;;;;;;;7.07;86.04;99583.69;1689061;84;22549;-76
2021/11/05 01:26:12;;;;;;;0.40;0.40;;;;;;;7.05;86.06;99590.58;1664474;84;22354;-76
2021/11/05 01:28:38;;;;;;;0.30;0.20;;;;;;;7.03;86.08;99598.75;1640891;86;22290;-76
2021/11/05 01:31:04;;;;;;;0.30;0.20;;;;;;;7.01;86.06;99598.38;1681549;84;21119;-76
2021/11/05 01:33:31;;;;;;;0.40;0.40;;;;;;;7.01;86.06;99609.94;1678998;84;21684;-76
2021/11/05 01:35:57;;;;;;;0.68;0.23;;;;;;;6.97;86.07;99616.42;1663100;85;21107;-76
2021/11/05 01:38:23;;;;;;;0.62;0.35;;;;;;;6.97;86.07;99623.28;1672348;84;21068;-76
2021/11/05 01:40:49;;;;;;;0.65;0.37;;;;;;;6.95;86.09;99624.59;1692449;84;21124;-76
2021/11/05 01:43:16;;;;;;;0.67;0.30;;;;;;;6.96;86.07;99642.14;1688595;84;21413;-76
2021/11/05 01:45:44;;;;;;;0.40;0.25;;;;;;;6.95;86.10;99641.73;1669644;84;21006;-76
2021/11/05 01:48:11;;;;;;;0.62;0.45;;;;;;;6.94;86.09;99643.45;1693513;84;21397;-76
2021/11/05 01:50:38;;;;;;;0.40;0.40;;;;;;;6.93;86.11;99655.89;1692769;84;20939;-76
2021/11/05 01:53:04;;;;;;;;;;;;;;;6.93;86.11;99659.74;1695143;84;21550;-76
2021/11/05 01:55:31;;;;;;;0.25;0.25;;;;;;;6.92;86.09;99668.77;1692440;84;20540;-76
2021/11/05 01:57:57;;;;;;;0.85;0.57;;;;;;;6.93;86.09;99680.73;1686057;84;21598;-76
2021/11/05 02:00:27;;;;;;;0.65;0.30;;;;;;;6.93;86.09;99685.88;1680371;84;21068;-77
2021/11/05 02:02:53;;;;;;;3.10;0.60;;;;;;;6.93;86.06;99703.44;1693544;84;21427;-76
2021/11/05 02:05:20;;;;;;;0.40;0.30;;;;;;;6.94;86.05;99696.57;1692997;84;21009;-76
2021/11/05 02:07:51;;;;;;;0.40;0.40;;;;;;;6.95;86.05;99685.42;1691434;84;21056;-76
2021/11/05 02:10:20;;;;;;;0.40;0.40;;;;;;;6.96;86.04;99697.39;1692178;84;21060;-76
2021/11/05 02:12:48;;;;;;;0.40;0.30;;;;;;;6.97;86.03;99701.23;1675953;84;21611;-76
2021/11/05 02:15:17;;;;;;;0.30;0.30;;;;;;;6.98;86.03;99705.49;1687669;84;20996;-76
2021/11/05 02:17:45;;;;;;;0.40;0.33;;;;;;;7.01;85.98;99711.46;1679520;84;21555;-76
2021/11/05 02:20:14;;;;;;;0.30;0.30;;;;;;;7.01;85.96;99702.03;1683386;84;21714;-76
2021/11/05 02:22:41;;;;;;;0.30;0.30;;;;;;;7.02;85.96;99711.87;1684717;84;21119;-76
2021/11/05 02:25:11;;;;;;;0.33;0.30;;;;;;;7.02;85.95;99723.44;1674212;85;21062;-76
2021/11/05 02:27:38;;;;;;;0.50;0.40;;;;;;;7.01;85.94;99722.59;1674600;85;21028;-76
2021/11/05 02:30:13;;;;;;;0.30;0.30;;;;;;;7.02;85.88;99741.43;1673737;85;21065;-76
2021/11/05 02:32:42;;;;;;;0.33;0.30;;;;;;;7.03;85.90;99740.55;1674626;85;21116;-76
2021/11/05 02:35:11;;;;;;;0.20;0.20;;;;;;;7.03;85.90;99751.69;1674912;85;21382;-76
2021/11/05 02:37:37;;;;;;;0.40;0.20;;;;;;;7.03;85.84;99752.13;1674035;85;21025;-76
2021/11/05 02:40:05;;;;;;;0.30;0.30;;;;;;;7.04;85.83;99751.25;1674823;85;21077;-76
2021/11/05 02:42:32;;;;;;;0.50;0.30;;;;;;;7.03;85.83;99776.11;1674189;85;21078;-76
2021/11/05 02:44:58;;;;;;;0.30;0.30;;;;;;;7.04;85.82;99788.52;1673489;85;21064;-76
2021/11/05 02:47:27;;;;;;;0.33;0.30;;;;;;;7.04;85.79;99780.81;1650113;85;20895;-76
2021/11/05 02:50:03;;;;;;;1.60;0.30;;;;;;;7.02;85.75;99784.69;1672080;85;21137;-76
2021/11/05 02:52:29;;;;;;;1.00;0.42;;;;;;;7.02;85.77;99791.55;1675910;85;21524;-76
2021/11/05 02:54:55;;;;;;;0.50;0.20;;;;;;;7.01;85.76;99776.56;1661493;85;20978;-76
2021/11/05 02:57:21;;;;;;;0.23;0.23;;;;;;;7.01;85.77;99803.55;1669983;85;20974;-76
2021/11/05 02:59:48;;;;;;;0.20;0.20;;;;;;;7.01;85.75;99809.13;1673549;85;21083;-76
2021/11/05 03:02:14;;;;;;;0.75;0.30;;;;;;;7.00;85.73;99805.70;1674457;85;21060;-76
2021/11/05 03:04:40;;;;;;;0.23;0.23;;;;;;;7.00;85.71;99815.14;1674541;85;21106;-76
2021/11/05 03:07:10;;;;;;;0.20;0.20;;;;;;;6.98;85.72;99814.73;1674491;85;21059;-76
2021/11/05 03:09:40;;;;;;;0.30;0.30;;;;;;;6.97;85.73;99827.16;1672176;85;20978;-76
2021/11/05 03:12:10;;;;;;;0.50;0.30;;;;;;;6.97;85.70;99828.45;1682036;84;20984;-76
2021/11/05 03:14:40;;;;;;;0.98;0.40;;;;;;;6.97;85.73;99841.73;1661962;85;21014;-76
2021/11/05 03:17:07;;;;;;;0.30;0.30;;;;;;;6.96;85.71;99845.17;1625906;87;21009;-76
2021/11/05 03:19:35;;;;;;;0.30;0.30;;;;;;;6.95;85.68;99858.89;1675452;85;21096;-75
2021/11/05 03:22:00;;;;;;;0.20;0.20;;;;;;;6.96;85.71;99852.88;1677737;84;21058;-75
2021/11/05 03:24:27;;;;;;;0.62;0.30;;;;;;;6.97;85.70;99853.30;1663002;86;21012;-75
2021/11/05 03:26:53;;;;;;;0.70;0.33;;;;;;;6.96;85.70;99870.87;1662948;86;21689;-75
2021/11/05 03:29:19;;;;;;;0.30;0.30;;;;;;;6.95;85.68;99864.03;1625391;85;21108;-75
2021/11/05 03:31:45;;;;;;;0.33;0.33;;;;;;;6.95;85.67;99874.31;1677966;84;21076;-75
2021/11/05 03:34:12;;;;;;;0.20;0.20;;;;;;;6.94;85.68;99884.18;1649098;86;20918;-75
2021/11/05 03:36:38;;;;;;;0.37;0.30;;;;;;;6.90;85.66;99863.25;1678578;84;21152;-75
2021/11/05 03:39:06;;;;;;;1.90;0.30;;;;;;;6.93;85.67;99891.04;1672312;85;21130;-75
2021/11/05 03:41:33;;;;;;;0.50;0.42;;;;;;;6.93;85.67;99897.90;1665954;85;21037;-75
2021/11/05 03:43:59;;;;;;;0.28;0.20;;;;;;;6.92;85.62;99912.91;1628918;86;21132;-75
2021/11/05 03:46:27;;;;;;;0.55;0.40;;;;;;;6.92;85.65;99902.19;1649300;85;21895;-75
2021/11/05 03:48:54;;;;;;;0.25;0.25;;;;;;;6.91;85.64;99909.92;1633379;87;20988;-75
2021/11/05 03:51:20;;;;;;;1.57;0.20;;;;;;;6.91;85.64;99921.48;1640799;87;21091;-75
2021/11/05 03:53:46;;;;;;;0.20;0.20;;;;;;;6.90;85.63;99930.91;1639139;87;21090;-75
2021/11/05 03:56:12;;;;;;;1.37;0.30;;;;;;;6.90;85.64;99923.20;1639788;87;21110;-75
2021/11/05 03:58:38;;;;;;;0.30;0.30;;;;;;;6.89;85.64;99939.48;1661171;86;21041;-75
2021/11/05 04:01:05;;;;;;;0.75;0.30;;;;;;;6.89;85.63;99949.77;1678451;85;21540;-76
2021/11/05 04:03:31;;;;;;;;;;;;;;;6.87;85.65;99944.23;1678764;85;21042;-75
2021/11/05 04:05:58;;;;;;;0.25;0.25;;;;;;;6.87;85.66;99945.52;1677121;84;20187;-75
2021/11/05 04:08:24;;;;;;;0.37;0.37;;;;;;;6.85;85.66;99952.39;1643544;86;21092;-75
2021/11/05 04:10:52;;;;;;;0.57;0.30;;;;;;;6.84;85.66;99960.53;1646895;86;21097;-75
2021/11/05 04:13:19;;;;;;;0.40;0.28;;;;;;;6.83;85.67;99965.69;1655830;86;21065;-75
2021/11/05 04:15:45;;;;;;;0.20;0.20;;;;;;;6.82;85.67;99969.98;1682691;84;21117;-75
2021/11/05 04:18:11;;;;;;;0.45;0.40;;;;;;;6.82;85.66;99984.55;1677670;85;21113;-75
2021/11/05 04:20:37;;;;;;;0.40;0.40;;;;;;;6.81;85.68;99982.84;1639793;87;20924;-75
2021/11/05 04:23:06;;;;;;;0.60;0.30;;;;;;;6.80;85.67;99990.98;1687250;83;21069;-75
2021/11/05 04:25:34;;;;;;;0.53;0.40;;;;;;;6.80;85.67;99986.28;1704200;83;21109;-75
2021/11/05 04:28:00;;;;;;;0.23;0.23;;;;;;;6.80;85.69;99988.42;1710947;83;21084;-75
2021/11/05 04:30:27;;;;;;;0.37;0.30;;;;;;;6.80;85.67;99985.00;1677741;84;21177;-75
2021/11/05 04:32:53;;;;;;;2.75;0.53;;;;;;;6.80;85.67;100008.12;1674270;85;21068;-75
2021/11/05 04:35:19;;;;;;;0.87;0.40;;;;;;;6.79;85.70;100007.27;1702800;83;21671;-75
2021/11/05 04:37:45;;;;;;;0.50;0.47;;;;;;;6.79;85.64;100007.70;1667750;84;21033;-75
2021/11/05 04:40:11;;;;;;;0.33;0.30;;;;;;;6.79;85.65;100015.41;1621147;86;21085;-75
2021/11/05 04:42:38;;;;;;;0.62;0.30;;;;;;;6.79;85.63;100017.55;1687625;84;21377;-76
2021/11/05 04:45:05;;;;;;;0.30;0.30;;;;;;;6.78;85.63;100024.84;1694215;83;21068;-76
2021/11/05 04:47:31;;;;;;;2.27;0.30;;;;;;;6.78;85.64;100035.55;1680721;84;21056;-76
2021/11/05 04:49:57;;;;;;;0.20;0.20;;;;;;;6.77;85.62;100040.27;1672523;85;20975;-76
2021/11/05 04:52:23;;;;;;;0.30;0.30;;;;;;;6.78;85.62;100040.69;1699829;83;21092;-76
2021/11/05 04:54:49;;;;;;;0.30;0.30;;;;;;;6.78;85.61;100045.39;1698586;84;20972;-76
2021/11/05 04:57:16;;;;;;;0.88;0.35;;;;;;;6.78;85.61;100046.68;1703804;83;20922;-76
2021/11/05 04:59:45;;;;;;;0.35;0.28;;;;;;;6.78;85.61;100058.24;1710929;83;20910;-76
2021/11/05 05:02:11;;;;;;;0.20;0.20;;;;;;;6.78;85.61;100060.81;1652406;85;20949;-76
2021/11/05 05:04:37;;;;;;;0.47;0.37;;;;;;;6.78;85.62;100060.81;1692947;84;22127;-76
2021/11/05 05:07:03;;;;;;;0.78;0.35;;;;;;;6.78;85.60;100062.09;1695715;84;20879;-76
2021/11/05 05:09:29;;;;;;;;;;;;;;;6.79;85.61;100070.66;1680744;85;20940;-76
2021/11/05 05:11:56;;;;;;;0.30;0.30;;;;;;;6.79;85.59;100080.94;1702740;83;20137;-76
2021/11/05 05:14:22;;;;;;;0.95;0.35;;;;;;;6.77;85.59;100083.52;1694949;84;25304;-76
2021/11/05 05:16:48;;;;;;;3.07;0.57;;;;;;;6.78;85.61;100086.51;1706140;83;20937;-76
2021/11/05 05:19:14;;;;;;;1.37;0.50;;;;;;;6.77;85.59;100091.23;1708986;83;21073;-76
2021/11/05 05:21:40;;;;;;;0.40;0.30;;;;;;;6.78;85.59;100103.64;1685166;84;21117;-76
2021/11/05 05:24:06;;;;;;;0.40;0.40;;;;;;;6.77;85.61;100093.80;1710259;83;20981;-76
2021/11/05 05:26:33;;;;;;;0.40;0.40;;;;;;;6.77;85.58;100102.79;1662468;86;20941;-76
2021/11/05 05:28:59;;;;;;;0.83;0.50;;;;;;;6.77;85.58;100095.52;1684313;84;20923;-76
2021/11/05 05:31:25;;;;;;;0.73;0.50;;;;;;;6.76;85.57;100103.66;1687780;83;21121;-76
2021/11/05 05:33:51;;;;;;;0.28;0.28;;;;;;;6.77;85.58;100110.93;1674708;84;21118;-76
2021/11/05 05:36:17;;;;;;;0.30;0.30;;;;;;;6.77;85.58;100123.78;1684231;84;20961;-76
2021/11/05 05:38:43;;;;;;;1.13;0.50;;;;;;;6.77;85.56;100122.49;1689861;84;21677;-76
2021/11/05 05:41:09;;;;;;;0.45;0.42;;;;;;;6.77;85.54;100119.92;1691295;84;21028;-76
2021/11/05 05:43:36;;;;;;;0.88;0.40;;;;;;;6.77;85.57;100139.19;1679327;84;21135;-76
2021/11/05 05:46:02;;;;;;;0.50;0.50;;;;;;;6.77;85.57;100151.61;1690009;84;25246;-76
2021/11/05 05:48:29;;;;;;;0.60;0.60;;;;;;;6.77;85.58;100144.33;1686813;83;21005;-76
2021/11/05 05:50:56;;;;;;;0.88;0.40;;;;;;;6.77;85.55;100146.91;1687545;83;21073;-76
2021/11/05 05:53:22;;;;;;;1.95;0.62;;;;;;;6.77;85.59;100152.89;1687011;84;21069;-76
2021/11/05 05:55:49;;;;;;;1.57;0.60;;;;;;;6.77;85.58;100161.89;1685068;83;21076;-77
2021/11/05 05:58:15;;;;;;;1.05;0.70;;;;;;;6.78;85.59;100168.73;1697196;82;154725;-77
2021/11/05 06:00:41;;;;;;;0.87;0.67;;;;;;;6.79;85.57;100163.16;1676447;83;20901;-76
2021/11/05 06:03:08;;;;;;;0.70;0.70;;;;;;;6.80;85.56;100170.00;1673359;83;21363;-76
2021/11/05 06:05:39;;;;;;;0.75;0.68;;;;;;;6.80;85.57;100181.56;1684733;83;21019;-76
2021/11/05 06:08:06;;;;;;;0.60;0.60;;;;;;;6.80;85.56;100187.99;1693469;83;21027;-76
2021/11/05 06:10:33;;;;;;;2.02;1.27;;;;;;;6.81;85.57;100188.41;1695917;83;21057;-76
2021/11/05 06:12:59;;;;;;;1.20;1.10;;;;;;;6.82;85.56;100195.26;1691096;83;20956;-76
2021/11/05 06:15:26;;;;;;;2.00;1.27;;;;;;;6.81;85.55;100196.98;1687294;83;20979;-76
2021/11/05 06:17:52;;;;;;;1.47;1.20;;;;;;;6.81;85.55;100199.55;1691606;84;21080;-76
2021/11/05 06:20:19;;;;;;;1.45;1.12;;;;;;;6.82;85.53;100214.09;1695261;83;21862;-76
2021/11/05 06:22:46;;;;;;;1.85;1.52;;;;;;;6.82;85.56;100217.95;1691493;83;21544;-76
2021/11/05 06:25:12;;;;;;;1.70;1.22;;;;;;;6.83;85.56;100226.09;1664614;84;21417;-76
2021/11/05 06:27:38;;;;;;;7.35;1.67;;;;;;;6.83;85.54;100227.80;1662228;86;20968;-76
2021/11/05 06:30:07;;;;;;;3.25;1.85;;;;;;;6.83;85.55;100244.08;1671348;85;20952;-76
2021/11/05 06:32:34;;;;;;;4.65;2.30;;;;;;;6.83;85.57;100240.65;1671244;84;21069;-76
2021/11/05 06:35:01;;;;;;;3.85;2.12;;;;;;;6.83;85.55;100249.22;1672330;85;20967;-76
2021/11/05 06:37:27;;;;;;;4.92;2.52;;;;;;;6.84;85.55;100255.20;1665120;84;21005;-76
2021/11/05 06:39:53;;;;;;;2.00;1.60;;;;;;;6.85;85.56;100261.63;1662005;86;21005;-76
2021/11/05 06:42:22;;;;;;;2.60;1.80;;;;;;;6.86;85.56;100266.33;1662508;86;21060;-76
2021/11/05 06:44:51;;;;;;;5.65;2.42;;;;;;;6.87;85.56;100268.03;1663491;86;21162;-76
2021/11/05 06:47:18;;;;;;;1.75;1.20;;;;;;;6.88;85.56;100280.87;1664340;84;20914;-76
2021/11/05 06:49:44;;;;;;;2.02;1.30;;;;;;;6.90;85.56;100282.16;1663554;86;20944;-76
2021/11/05 06:52:11;;;;;;;3.65;1.40;;;;;;;6.90;85.54;100281.72;1663570;86;20950;-76
2021/11/05 06:54:40;;;;;;;2.70;1.30;;;;;;;6.92;85.55;100288.99;1652277;85;308120;-76
2021/11/05 06:57:08;;;;;;;3.12;1.27;;;;;;;6.94;85.54;100309.55;1662055;86;20899;-76
2021/11/05 06:59:35;;;;;;;3.20;1.72;;;;;;;6.95;85.53;100308.69;1663322;85;20961;-76
2021/11/05 07:02:03;;;;;;;;;;;;;;;6.96;85.52;100322.81;1642192;85;21405;-76
2021/11/05 07:04:29;;;;;;;7.75;3.45;;;;;;;6.97;85.53;100329.66;1666184;84;20119;-76
2021/11/05 07:06:57;;;;;;;6.65;3.42;;;;;;;6.98;85.52;100332.65;1663896;85;20929;-77
2021/11/05 07:09:24;;;;;;;6.40;2.98;;;;;;;6.99;85.55;100346.36;1663717;86;20941;-76
2021/11/05 07:11:51;;;;;;;6.80;2.85;;;;;;;7.01;85.53;100342.06;1662347;86;21552;-76
2021/11/05 07:14:17;;;;;;;2.90;1.60;;;;;;;7.02;85.56;100349.34;1661304;84;21034;-76
2021/11/05 07:16:44;;;;;;;2.92;1.52;;;;;;;7.04;85.53;100354.05;1648548;86;21011;-76
2021/11/05 07:19:10;;;;;;;;;;;;;;;7.06;85.53;100361.31;1632697;86;21120;-76
2021/11/05 07:21:37;;;;;;;2.80;1.62;;;;;;;7.07;85.51;100355.31;1662176;85;20264;-76
2021/11/05 07:24:04;;;;;;;2.90;2.10;;;;;;;7.08;85.50;100368.59;1684350;83;21054;-76
2021/11/05 07:26:36;;;;;;;1.55;1.00;;;;;;;7.09;85.49;100370.30;1712355;83;20978;-76
2021/11/05 07:29:05;;;;;;;1.72;1.25;;;;;;;7.12;85.51;100386.56;1684587;84;21119;-76
2021/11/05 07:31:33;;;;;;;1.87;1.47;;;;;;;7.15;85.52;100384.41;1674373;84;21015;-76
2021/11/05 07:33:59;;;;;;;2.83;2.20;;;;;;;7.16;85.51;100397.25;1680722;85;21405;-76
2021/11/05 07:36:26;;;;;;;5.05;2.27;;;;;;;7.18;85.54;100394.24;1693128;83;20896;-76
2021/11/05 07:38:52;;;;;;;3.70;1.98;;;;;;;7.22;85.52;100411.80;1686770;84;21076;-76
2021/11/05 07:41:19;;;;;;;3.33;2.27;;;;;;;7.24;85.51;100416.06;1724811;82;21108;-76
2021/11/05 07:43:48;;;;;;;2.10;1.82;;;;;;;7.26;85.52;100416.91;1699717;83;21088;-76
2021/11/05 07:46:14;;;;;;;2.50;1.95;;;;;;;7.29;85.50;100419.44;1693535;83;21127;-76
2021/11/05 07:48:48;;;;;;;3.35;1.90;;;;;;;7.31;85.47;100424.57;1692039;84;21065;-76
2021/11/05 07:51:15;;;;;;;1.57;1.47;;;;;;;7.33;85.48;100441.28;1712233;83;21036;-76
2021/11/05 07:53:40;;;;;;;2.42;1.95;;;;;;;7.36;85.50;100441.27;1712268;83;21031;-76
2021/11/05 07:56:07;;;;;;;1.27;1.20;;;;;;;7.39;85.50;100443.81;1712431;83;20987;-76
2021/11/05 07:58:33;;;;;;;1.82;1.60;;;;;;;7.40;85.49;100441.67;1712164;83;21670;-76
2021/11/05 08:01:00;;;;;;;1.20;1.10;;;;;;;7.43;85.52;100456.66;1712196;83;21010;-76
2021/11/05 08:03:26;;;;;;;1.50;1.40;;;;;;;7.46;85.49;100466.93;1690635;83;21161;-76
2021/11/05 08:05:52;;;;;;;2.08;1.57;;;;;;;7.48;85.48;100469.06;1678147;84;21271;-76
2021/11/05 08:08:18;;;;;;;2.10;1.80;;;;;;;7.51;85.49;100461.33;1709554;83;21046;-76
2021/11/05 08:10:44;;;;;;;3.22;2.87;;;;;;;7.53;85.50;100470.32;1712545;83;21060;-76
2021/11/05 08:13:11;;;;;;;2.47;2.17;;;;;;;7.54;85.49;100476.75;1708392;83;21083;-76
2021/11/05 08:15:38;;;;;;;2.25;2.00;;;;;;;7.55;85.43;100479.74;1712802;83;21129;-76
2021/11/05 08:18:04;;;;;;;1.90;1.55;;;;;;;7.56;85.44;100488.31;1685299;83;21002;-76
2021/11/05 08:20:30;;;;;;;2.60;1.70;;;;;;;7.56;85.44;100490.89;1711619;83;21073;-76
2021/11/05 08:22:56;;;;;;;1.90;1.80;;;;;;;7.55;85.43;100508.05;1712421;83;20994;-75
2021/11/05 08:25:24;;;;;;;3.97;1.53;;;;;;;7.55;85.43;100505.91;1713384;82;21103;-75
2021/11/05 08:27:50;;;;;;;1.87;1.77;;;;;;;7.54;85.45;100517.91;1692235;83;21577;-75
2021/11/05 08:30:22;;;;;;;2.77;1.82;;;;;;;7.55;85.48;100508.47;1714571;83;20876;-75
2021/11/05 08:32:50;;;;;;;2.15;1.75;;;;;;;7.54;85.46;100505.48;1712919;83;20949;-75
2021/11/05 08:35:18;;;;;;;2.42;1.60;;;;;;;7.54;85.47;100532.06;1705493;82;20944;-75
2021/11/05 08:37:44;;;;;;;2.22;1.82;;;;;;;7.54;85.47;100536.35;1714396;83;21035;-75
2021/11/05 08:40:12;;;;;;;6.05;2.55;;;;;;;7.56;85.49;100539.77;1687608;83;21586;-75
2021/11/05 08:42:39;;;;;;;7.37;2.90;;;;;;;7.57;85.49;100551.78;1713518;83;21063;-75
2021/11/05 08:45:09;;;;;;;4.92;3.10;;;;;;;7.58;85.46;100548.34;1713493;83;20952;-75
2021/11/05 08:47:37;;;;;;;2.58;2.37;;;;;;;7.59;85.51;100556.05;1712311;82;20983;-75
2021/11/05 08:50:10;;;;;;;2.50;2.10;;;;;;;7.60;85.47;100571.06;1714685;82;20920;-75
2021/11/05 08:52:38;;;;;;;3.45;2.02;;;;;;;7.61;85.52;100572.34;1677172;83;20995;-75
2021/11/05 08:55:06;;;;;;;2.85;1.90;;;;;;;7.62;85.51;100577.91;1712090;82;20868;-75
2021/11/05 08:57:34;;;;;;;2.12;2.00;;;;;;;7.64;85.51;100582.63;1691886;82;334508;-75
2021/11/05 09:00:05;;;;;;;3.12;2.27;;;;;;;7.65;85.52;100595.06;1722644;82;21290;-75
2021/11/05 09:02:31;;;;;;;5.28;3.10;;;;;;;7.64;85.54;100595.48;1723883;82;21031;-75
2021/11/05 09:04:57;;;;;;;13.37;5.63;;;;;;;7.66;85.57;100604.48;1706908;82;20897;-75
2021/11/05 09:07:27;;;;;;;5.75;4.42;;;;;;;7.66;85.55;100608.35;1721461;82;21478;-75
2021/11/05 09:09:53;;;;;;;5.40;4.50;;;;;;;7.67;85.54;100611.78;1723116;82;20972;-75
2021/11/05 09:12:19;;;;;;;5.83;4.80;;;;;;;7.65;85.56;100613.07;1702255;82;20975;-75
2021/11/05 09:14:45;;;;;;;9.00;4.53;;;;;;;7.66;85.59;100617.79;1715215;82;21146;-75
2021/11/05 09:17:11;;;;;;;5.33;4.13;;;;;;;7.66;85.62;100619.93;1725127;81;21083;-75
2021/11/05 09:19:37;;;;;;;5.20;4.05;;;;;;;7.69;85.67;100631.93;1721208;82;21055;-75
2021/11/05 09:22:04;;;;;;;5.83;4.15;;;;;;;7.69;85.62;100622.49;1716990;81;21143;-75
2021/11/05 09:24:33;;;;;;;5.17;4.20;;;;;;;7.70;85.67;100630.64;1725309;81;21682;-75
2021/11/05 09:27:00;;;;;;;4.85;3.55;;;;;;;7.72;85.66;100637.92;1703257;82;21079;-75
2021/11/05 09:29:26;;;;;;;7.12;4.03;;;;;;;7.72;85.66;100643.07;1701735;82;21455;-75
2021/11/05 09:31:52;;;;;;;4.22;3.58;;;;;;;7.73;85.69;100646.07;1671937;82;20995;-75
2021/11/05 09:34:19;;;;;;;3.72;3.33;;;;;;;7.74;85.70;100651.64;1694976;82;21072;-75
2021/11/05 09:36:45;;;;;;;4.27;3.67;;;;;;;7.75;85.66;100653.78;1703545;83;20932;-75
2021/11/05 09:39:11;;;;;;;4.03;3.53;;;;;;;7.75;85.69;100663.66;1704759;82;21706;-75
2021/11/05 09:41:37;;;;;;;3.98;3.05;;;;;;;7.75;85.72;100657.22;1701011;82;21085;-75
2021/11/05 09:44:04;;;;;;;5.67;3.50;;;;;;;7.76;85.73;100661.50;1722124;82;21063;-75
2021/11/05 09:46:30;;;;;;;3.15;2.95;;;;;;;7.79;85.73;100667.07;1680287;85;21092;-75
2021/11/05 09:48:56;;;;;;;3.87;3.58;;;;;;;7.80;85.72;100669.61;1681477;83;20982;-75
2021/11/05 09:51:22;;;;;;;5.33;3.45;;;;;;;7.81;85.72;100680.76;1680276;83;21015;-75
2021/11/05 09:53:49;;;;;;;3.92;3.62;;;;;;;7.83;85.73;100685.47;1681769;83;21068;-75
2021/11/05 09:56:17;;;;;;;4.08;3.60;;;;;;;7.82;85.71;100685.91;1680803;84;21485;-75
2021/11/05 09:58:43;;;;;;;4.97;3.70;;;;;;;7.85;85.79;100692.33;1682865;83;21538;-75
2021/11/05 10:01:11;;;;;;;3.87;3.58;;;;;;;7.87;85.77;100696.19;1681423;84;20993;-75
2021/11/05 10:03:38;;;;;;;4.17;3.87;;;;;;;7.88;85.75;100699.18;1674816;83;21507;-75
2021/11/05 10:06:12;;;;;;;4.12;3.83;;;;;;;7.89;85.75;100701.75;1675773;85;20992;-75
2021/11/05 10:08:38;;;;;;;6.15;4.35;;;;;;;7.90;85.77;100708.61;1682148;84;21048;-75
2021/11/05 10:11:30;;;;;;;5.83;4.25;;;;;;;7.93;85.76;100708.60;1682333;83;21121;-75
2021/11/05 10:14:01;;;;;;;7.70;4.40;;;;;;;7.95;85.75;100713.75;1678399;83;21175;-75
2021/11/05 10:16:30;;;;;;;6.22;4.65;;;;;;;7.99;85.80;100720.59;1679468;85;22159;-75
2021/11/05 10:19:08;;;;;;;6.87;4.50;;;;;;;8.02;85.81;100732.17;1681326;83;21069;-75
2021/11/05 10:21:47;;;;;;;9.95;5.08;;;;;;;8.05;85.77;100733.88;1679392;83;21593;-75
2021/11/05 10:24:20;;;;;;;13.83;6.90;;;;;;;8.06;85.79;100732.59;1680303;83;21108;-76
2021/11/05 10:26:50;;;;;;;16.00;8.05;;;;;;;8.08;85.77;100741.16;1681737;84;21691;-75
2021/11/05 10:29:32;;;;;;;30.88;11.28;;;;;;;8.09;85.75;100746.74;1681844;84;21588;-77
2021/11/05 10:32:05;;;;;;;46.68;10.68;;;;;;;8.09;85.75;100754.47;1671166;83;21584;-76
2021/11/05 10:34:52;;;;;;;29.57;10.23;;;;;;;8.10;85.78;100753.61;1680589;84;21068;-77
2021/11/05 10:37:29;;;;;;;33.60;11.65;;;;;;;8.12;85.76;100763.47;1679809;83;21502;-77
2021/11/05 10:39:57;;;;;;;22.13;9.83;;;;;;;8.13;85.75;100773.34;1675209;84;21431;-77
2021/11/05 10:42:34;;;;;;;20.48;8.98;;;;;;;8.14;85.81;100777.20;1679426;84;21513;-77
2021/11/05 10:45:16;;;;;;;19.80;9.75;;;;;;;8.14;85.77;100782.35;1675408;83;21037;-76
2021/11/05 10:47:59;;;;;;;16.27;9.03;;;;;;;8.15;85.76;100786.64;1675319;83;21074;-75
2021/11/05 11:05:37;;;;;;;7.72;6.53;;;;;;;8.50;85.65;100805.84;1778786;79;22724;-73
2021/11/05 11:08:04;;;;;;;8.23;6.25;;;;;;;8.44;85.64;100805.86;1760612;80;21500;-74
2021/11/05 11:10:36;;;;;;;7.15;6.37;;;;;;;8.43;85.70;100820.04;1745580;80;21014;-74
2021/11/05 11:13:03;;;;;;;7.45;6.75;;;;;;;8.40;85.74;100820.91;1756742;80;20982;-74
2021/11/05 11:15:37;;;;;;;8.18;6.28;;;;;;;8.39;85.77;100833.37;1766264;79;21021;-74
2021/11/05 11:18:05;;;;;;;9.40;7.22;;;;;;;8.39;85.79;100836.38;1743630;80;20978;-74
2021/11/05 11:42:13;;;;;;;12.47;10.40;;;;;;;8.32;85.84;100867.70;1794136;79;22374;-77
2021/11/05 11:44:39;;;;;;;;;;;;;;;8.26;85.84;100874.20;1743471;80;20992;-77
2021/11/05 11:47:15;;;;;;;13.45;9.35;;;;;;;8.23;85.82;100876.78;1768225;80;20127;-77
2021/11/05 11:49:48;;;;;;;12.70;10.48;;;;;;;8.23;85.80;100879.36;1766029;80;20938;-78
2021/11/05 11:52:23;;;;;;;13.83;9.58;;;;;;;8.21;85.76;100881.94;1764451;80;20996;-77
2021/11/05 11:55:02;;;;;;;12.35;9.33;;;;;;;8.22;85.72;100883.65;1756723;80;21495;-77
2021/11/05 11:57:32;;;;;;;14.78;10.43;;;;;;;8.22;85.72;100870.77;1755742;80;20894;-77
2021/11/05 12:00:21;;;;;;;13.53;10.53;;;;;;;8.24;85.67;100878.49;1762722;80;20953;-77
2021/11/05 12:02:50;;;;;;;15.58;11.12;;;;;;;8.26;85.65;100883.21;1767000;80;20945;-78
2021/11/05 12:05:31;;;;;;;13.90;9.83;;;;;;;8.26;85.60;100886.64;1761882;80;20937;-78
2021/11/05 12:08:27;;;;;;;12.73;8.88;;;;;;;8.25;85.59;100882.36;1760382;80;20854;-78
2021/11/05 12:11:06;;;;;;;;;;;;;;;8.26;85.57;100898.23;1765986;80;20930;-78
2021/11/05 12:13:40;;;;;;;18.92;11.38;;;;;;;8.26;85.54;100902.53;1766422;80;20958;-78
2021/11/05 12:16:25;;;;;;;27.50;12.05;;;;;;;8.24;85.57;100905.11;1728729;82;20954;-78